sensor_id;sensor_type;location;lat;lon;timestamp;P1;durP1;ratioP1;P2;durP2;ratioP2
38117;SDS011;23928;47.562;7.508;2023-12-14T00:01:39;0.80;;;0.70;;
38117;SDS011;23928;47.562;7.508;2023-12-14T00:04:06;1.17;;;0.70;;
38117;SDS011;23928;47.562;7.508;2023-12-14T00:06:32;1.33;;;0.60;;
38117;SDS011;23928;47.562;7.508;2023-12-14T00:08:58;0.63;;;0.60;;
38117;SDS011;23928;47.562;7.508;2023-12-14T00:11:23;0.93;;;0.63;;
38117;SDS011;23928;47.562;7.508;2023-12-14T00:13:49;1.20;;;0.40;;
38117;SDS011;23928;47.562;7.508;2023-12-14T00:16:15;0.47;;;0.33;;
38117;SDS011;23928;47.562;7.508;2023-12-14T00:18:40;1.00;;;0.50;;
38117;SDS011;23928;47.562;7.508;2023-12-14T00:21:06;0.40;;;0.40;;
38117;SDS011;23928;47.562;7.508;2023-12-14T00:23:33;0.60;;;0.60;;
38117;SDS011;23928;47.562;7.508;2023-12-14T00:25:59;0.57;;;0.50;;
38117;SDS011;23928;47.562;7.508;2023-12-14T00:28:24;0.97;;;0.50;;
38117;SDS011;23928;47.562;7.508;2023-12-14T00:30:50;0.47;;;0.47;;
38117;SDS011;23928;47.562;7.508;2023-12-14T00:33:16;0.70;;;0.60;;
38117;SDS011;23928;47.562;7.508;2023-12-14T00:35:41;1.80;;;0.50;;
38117;SDS011;23928;47.562;7.508;2023-12-14T00:38:07;0.20;;;0.20;;
38117;SDS011;23928;47.562;7.508;2023-12-14T00:40:32;0.73;;;0.33;;
38117;SDS011;23928;47.562;7.508;2023-12-14T00:42:58;0.87;;;0.37;;
38117;SDS011;23928;47.562;7.508;2023-12-14T00:45:23;0.40;;;0.40;;
38117;SDS011;23928;47.562;7.508;2023-12-14T00:47:49;0.40;;;0.30;;
38117;SDS011;23928;47.562;7.508;2023-12-14T00:50:15;0.30;;;0.30;;
38117;SDS011;23928;47.562;7.508;2023-12-14T00:52:40;3.00;;;0.40;;
38117;SDS011;23928;47.562;7.508;2023-12-14T00:55:06;0.27;;;0.27;;
38117;SDS011;23928;47.562;7.508;2023-12-14T00:57:32;0.43;;;0.30;;
38117;SDS011;23928;47.562;7.508;2023-12-14T00:59:57;0.87;;;0.53;;
38117;SDS011;23928;47.562;7.508;2023-12-14T01:02:23;0.40;;;0.40;;
38117;SDS011;23928;47.562;7.508;2023-12-14T01:04:48;1.27;;;0.60;;
38117;SDS011;23928;47.562;7.508;2023-12-14T01:07:14;0.50;;;0.50;;
38117;SDS011;23928;47.562;7.508;2023-12-14T01:09:39;0.33;;;0.33;;
38117;SDS011;23928;47.562;7.508;2023-12-14T01:12:05;0.40;;;0.40;;
38117;SDS011;23928;47.562;7.508;2023-12-14T01:14:31;0.43;;;0.43;;
38117;SDS011;23928;47.562;7.508;2023-12-14T01:16:56;0.60;;;0.60;;
38117;SDS011;23928;47.562;7.508;2023-12-14T01:19:22;1.10;;;0.60;;
38117;SDS011;23928;47.562;7.508;2023-12-14T01:21:48;0.50;;;0.50;;
38117;SDS011;23928;47.562;7.508;2023-12-14T01:24:14;1.57;;;0.60;;
38117;SDS011;23928;47.562;7.508;2023-12-14T01:26:39;2.40;;;0.77;;
38117;SDS011;23928;47.562;7.508;2023-12-14T01:29:05;1.20;;;0.77;;
38117;SDS011;23928;47.562;7.508;2023-12-14T01:31:30;0.60;;;0.60;;
38117;SDS011;23928;47.562;7.508;2023-12-14T01:33:56;0.97;;;0.63;;
38117;SDS011;23928;47.562;7.508;2023-12-14T01:36:22;0.90;;;0.50;;
38117;SDS011;23928;47.562;7.508;2023-12-14T01:38:51;0.50;;;0.50;;
38117;SDS011;23928;47.562;7.508;2023-12-14T01:41:17;1.23;;;0.80;;
38117;SDS011;23928;47.562;7.508;2023-12-14T01:43:43;1.37;;;0.97;;
38117;SDS011;23928;47.562;7.508;2023-12-14T01:46:09;1.10;;;1.00;;
38117;SDS011;23928;47.562;7.508;2023-12-14T01:48:35;1.43;;;0.90;;
38117;SDS011;23928;47.562;7.508;2023-12-14T01:51:02;1.93;;;1.20;;
38117;SDS011;23928;47.562;7.508;2023-12-14T01:53:27;1.43;;;1.10;;
38117;SDS011;23928;47.562;7.508;2023-12-14T01:55:53;1.63;;;1.10;;
38117;SDS011;23928;47.562;7.508;2023-12-14T01:58:20;1.80;;;1.37;;
38117;SDS011;23928;47.562;7.508;2023-12-14T02:03:29;1.57;;;1.37;;
38117;SDS011;23928;47.562;7.508;2023-12-14T02:05:55;1.70;;;1.60;;
38117;SDS011;23928;47.562;7.508;2023-12-14T02:08:22;2.67;;;1.97;;
38117;SDS011;23928;47.562;7.508;2023-12-14T02:10:49;1.87;;;1.60;;
38117;SDS011;23928;47.562;7.508;2023-12-14T02:13:14;3.20;;;1.70;;
38117;SDS011;23928;47.562;7.508;2023-12-14T02:15:40;1.70;;;1.60;;
38117;SDS011;23928;47.562;7.508;2023-12-14T02:18:05;2.53;;;1.47;;
38117;SDS011;23928;47.562;7.508;2023-12-14T02:20:31;2.17;;;1.77;;
38117;SDS011;23928;47.562;7.508;2023-12-14T02:22:57;2.90;;;1.70;;
38117;SDS011;23928;47.562;7.508;2023-12-14T02:25:23;1.60;;;1.50;;
38117;SDS011;23928;47.562;7.508;2023-12-14T02:27:49;2.17;;;1.60;;
38117;SDS011;23928;47.562;7.508;2023-12-14T02:30:16;2.37;;;1.30;;
38117;SDS011;23928;47.562;7.508;2023-12-14T02:32:42;1.53;;;1.00;;
38117;SDS011;23928;47.562;7.508;2023-12-14T02:35:08;2.30;;;1.40;;
38117;SDS011;23928;47.562;7.508;2023-12-14T02:37:34;1.80;;;1.70;;
38117;SDS011;23928;47.562;7.508;2023-12-14T02:40:05;2.40;;;1.60;;
38117;SDS011;23928;47.562;7.508;2023-12-14T02:42:32;2.40;;;1.60;;
38117;SDS011;23928;47.562;7.508;2023-12-14T02:44:57;2.50;;;2.10;;
38117;SDS011;23928;47.562;7.508;2023-12-14T02:47:23;4.13;;;2.40;;
38117;SDS011;23928;47.562;7.508;2023-12-14T02:49:48;2.37;;;1.83;;
38117;SDS011;23928;47.562;7.508;2023-12-14T02:52:14;2.40;;;2.20;;
38117;SDS011;23928;47.562;7.508;2023-12-14T02:54:40;2.30;;;2.00;;
38117;SDS011;23928;47.562;7.508;2023-12-14T02:57:05;2.67;;;2.47;;
38117;SDS011;23928;47.562;7.508;2023-12-14T02:59:31;3.73;;;2.97;;
38117;SDS011;23928;47.562;7.508;2023-12-14T03:01:57;3.83;;;2.57;;
38117;SDS011;23928;47.562;7.508;2023-12-14T03:04:23;4.10;;;2.77;;
38117;SDS011;23928;47.562;7.508;2023-12-14T03:06:48;4.73;;;3.03;;
38117;SDS011;23928;47.562;7.508;2023-12-14T03:09:14;3.90;;;3.17;;
38117;SDS011;23928;47.562;7.508;2023-12-14T03:11:40;4.87;;;2.97;;
38117;SDS011;23928;47.562;7.508;2023-12-14T03:14:05;3.40;;;3.10;;
38117;SDS011;23928;47.562;7.508;2023-12-14T03:16:31;6.00;;;3.07;;
38117;SDS011;23928;47.562;7.508;2023-12-14T03:18:56;4.40;;;2.97;;
38117;SDS011;23928;47.562;7.508;2023-12-14T03:21:22;4.07;;;3.13;;
38117;SDS011;23928;47.562;7.508;2023-12-14T03:23:48;5.80;;;3.00;;
38117;SDS011;23928;47.562;7.508;2023-12-14T03:26:16;5.07;;;3.17;;
38117;SDS011;23928;47.562;7.508;2023-12-14T03:28:42;4.47;;;3.30;;
38117;SDS011;23928;47.562;7.508;2023-12-14T03:31:09;5.40;;;3.43;;
38117;SDS011;23928;47.562;7.508;2023-12-14T03:33:37;3.70;;;3.10;;
38117;SDS011;23928;47.562;7.508;2023-12-14T03:36:02;5.27;;;3.30;;
38117;SDS011;23928;47.562;7.508;2023-12-14T03:38:28;4.43;;;3.47;;
38117;SDS011;23928;47.562;7.508;2023-12-14T03:40:54;3.77;;;3.17;;
38117;SDS011;23928;47.562;7.508;2023-12-14T03:43:20;4.13;;;3.20;;
38117;SDS011;23928;47.562;7.508;2023-12-14T03:45:45;4.23;;;3.67;;
38117;SDS011;23928;47.562;7.508;2023-12-14T03:48:11;4.30;;;3.90;;
38117;SDS011;23928;47.562;7.508;2023-12-14T03:50:37;5.90;;;3.83;;
38117;SDS011;23928;47.562;7.508;2023-12-14T03:53:02;4.20;;;3.47;;
38117;SDS011;23928;47.562;7.508;2023-12-14T03:55:28;4.50;;;3.70;;
38117;SDS011;23928;47.562;7.508;2023-12-14T03:57:53;5.23;;;3.60;;
38117;SDS011;23928;47.562;7.508;2023-12-14T04:00:19;4.10;;;3.70;;
38117;SDS011;23928;47.562;7.508;2023-12-14T04:02:45;5.33;;;3.07;;
38117;SDS011;23928;47.562;7.508;2023-12-14T04:05:10;4.47;;;3.63;;
38117;SDS011;23928;47.562;7.508;2023-12-14T04:07:36;4.73;;;3.80;;
38117;SDS011;23928;47.562;7.508;2023-12-14T04:10:05;3.60;;;3.20;;
38117;SDS011;23928;47.562;7.508;2023-12-14T04:12:35;5.20;;;3.23;;
38117;SDS011;23928;47.562;7.508;2023-12-14T04:15:02;7.37;;;3.60;;
38117;SDS011;23928;47.562;7.508;2023-12-14T04:17:28;5.13;;;3.50;;
38117;SDS011;23928;47.562;7.508;2023-12-14T04:19:55;4.43;;;3.00;;
38117;SDS011;23928;47.562;7.508;2023-12-14T04:22:21;5.27;;;2.80;;
38117;SDS011;23928;47.562;7.508;2023-12-14T04:24:46;3.37;;;2.77;;
38117;SDS011;23928;47.562;7.508;2023-12-14T04:27:12;3.13;;;2.80;;
38117;SDS011;23928;47.562;7.508;2023-12-14T04:29:38;3.23;;;2.67;;
38117;SDS011;23928;47.562;7.508;2023-12-14T04:32:04;4.47;;;2.80;;
38117;SDS011;23928;47.562;7.508;2023-12-14T04:34:30;3.10;;;2.53;;
38117;SDS011;23928;47.562;7.508;2023-12-14T04:36:55;5.17;;;2.60;;
38117;SDS011;23928;47.562;7.508;2023-12-14T04:39:23;3.57;;;2.40;;
38117;SDS011;23928;47.562;7.508;2023-12-14T04:41:50;3.53;;;2.53;;
38117;SDS011;23928;47.562;7.508;2023-12-14T04:44:16;3.20;;;2.50;;
38117;SDS011;23928;47.562;7.508;2023-12-14T04:46:41;3.30;;;2.50;;
38117;SDS011;23928;47.562;7.508;2023-12-14T04:49:07;2.20;;;2.00;;
38117;SDS011;23928;47.562;7.508;2023-12-14T04:51:33;2.90;;;2.33;;
38117;SDS011;23928;47.562;7.508;2023-12-14T04:53:58;2.40;;;2.07;;
38117;SDS011;23928;47.562;7.508;2023-12-14T04:56:24;3.50;;;2.03;;
38117;SDS011;23928;47.562;7.508;2023-12-14T04:58:50;2.80;;;1.83;;
38117;SDS011;23928;47.562;7.508;2023-12-14T05:01:15;2.57;;;2.03;;
38117;SDS011;23928;47.562;7.508;2023-12-14T05:03:41;2.13;;;1.90;;
38117;SDS011;23928;47.562;7.508;2023-12-14T05:06:07;2.30;;;2.10;;
38117;SDS011;23928;47.562;7.508;2023-12-14T05:08:32;2.50;;;1.90;;
38117;SDS011;23928;47.562;7.508;2023-12-14T05:10:58;2.47;;;2.07;;
38117;SDS011;23928;47.562;7.508;2023-12-14T05:13:24;3.40;;;2.10;;
38117;SDS011;23928;47.562;7.508;2023-12-14T05:15:50;2.93;;;1.90;;
38117;SDS011;23928;47.562;7.508;2023-12-14T05:18:17;3.47;;;2.30;;
38117;SDS011;23928;47.562;7.508;2023-12-14T05:20:43;2.77;;;2.20;;
38117;SDS011;23928;47.562;7.508;2023-12-14T05:23:10;3.23;;;1.90;;
38117;SDS011;23928;47.562;7.508;2023-12-14T05:25:36;3.97;;;2.00;;
38117;SDS011;23928;47.562;7.508;2023-12-14T05:28:02;3.13;;;1.87;;
38117;SDS011;23928;47.562;7.508;2023-12-14T05:30:28;2.40;;;2.10;;
38117;SDS011;23928;47.562;7.508;2023-12-14T05:32:54;2.20;;;2.00;;
38117;SDS011;23928;47.562;7.508;2023-12-14T05:35:20;1.77;;;1.67;;
38117;SDS011;23928;47.562;7.508;2023-12-14T05:37:45;2.50;;;2.20;;
38117;SDS011;23928;47.562;7.508;2023-12-14T05:40:11;4.57;;;2.00;;
38117;SDS011;23928;47.562;7.508;2023-12-14T05:42:37;2.30;;;1.93;;
38117;SDS011;23928;47.562;7.508;2023-12-14T05:45:03;2.00;;;1.80;;
38117;SDS011;23928;47.562;7.508;2023-12-14T05:47:30;2.20;;;2.00;;
38117;SDS011;23928;47.562;7.508;2023-12-14T05:49:57;1.87;;;1.70;;
38117;SDS011;23928;47.562;7.508;2023-12-14T05:52:22;2.93;;;2.37;;
38117;SDS011;23928;47.562;7.508;2023-12-14T05:54:48;3.97;;;2.20;;
38117;SDS011;23928;47.562;7.508;2023-12-14T05:57:13;4.63;;;2.30;;
38117;SDS011;23928;47.562;7.508;2023-12-14T05:59:39;4.40;;;2.87;;
38117;SDS011;23928;47.562;7.508;2023-12-14T06:02:04;3.47;;;2.60;;
38117;SDS011;23928;47.562;7.508;2023-12-14T06:04:31;3.27;;;2.43;;
38117;SDS011;23928;47.562;7.508;2023-12-14T06:06:57;2.97;;;2.70;;
38117;SDS011;23928;47.562;7.508;2023-12-14T06:09:23;5.03;;;3.10;;
38117;SDS011;23928;47.562;7.508;2023-12-14T06:11:50;3.77;;;3.27;;
38117;SDS011;23928;47.562;7.508;2023-12-14T06:14:16;4.40;;;3.43;;
38117;SDS011;23928;47.562;7.508;2023-12-14T06:16:42;4.23;;;3.23;;
38117;SDS011;23928;47.562;7.508;2023-12-14T06:19:08;6.60;;;3.60;;
38117;SDS011;23928;47.562;7.508;2023-12-14T06:21:33;4.40;;;3.70;;
38117;SDS011;23928;47.562;7.508;2023-12-14T06:23:59;5.00;;;3.57;;
38117;SDS011;23928;47.562;7.508;2023-12-14T06:26:25;4.37;;;3.70;;
38117;SDS011;23928;47.562;7.508;2023-12-14T06:28:51;4.07;;;3.60;;
38117;SDS011;23928;47.562;7.508;2023-12-14T06:31:17;6.50;;;3.67;;
38117;SDS011;23928;47.562;7.508;2023-12-14T06:33:46;5.93;;;3.90;;
38117;SDS011;23928;47.562;7.508;2023-12-14T06:36:17;4.40;;;3.73;;
38117;SDS011;23928;47.562;7.508;2023-12-14T06:38:44;5.83;;;4.33;;
38117;SDS011;23928;47.562;7.508;2023-12-14T06:41:19;6.30;;;3.50;;
38117;SDS011;23928;47.562;7.508;2023-12-14T06:43:45;4.57;;;3.60;;
38117;SDS011;23928;47.562;7.508;2023-12-14T06:46:11;4.47;;;3.67;;
38117;SDS011;23928;47.562;7.508;2023-12-14T06:48:37;7.93;;;4.07;;
38117;SDS011;23928;47.562;7.508;2023-12-14T06:51:02;5.70;;;3.50;;
38117;SDS011;23928;47.562;7.508;2023-12-14T06:53:28;5.10;;;3.60;;
38117;SDS011;23928;47.562;7.508;2023-12-14T06:55:55;5.80;;;3.57;;
38117;SDS011;23928;47.562;7.508;2023-12-14T06:58:20;5.17;;;3.77;;
38117;SDS011;23928;47.562;7.508;2023-12-14T07:00:46;5.43;;;3.87;;
38117;SDS011;23928;47.562;7.508;2023-12-14T07:03:12;6.37;;;4.17;;
38117;SDS011;23928;47.562;7.508;2023-12-14T07:05:38;4.57;;;3.23;;
38117;SDS011;23928;47.562;7.508;2023-12-14T07:08:04;6.07;;;4.77;;
38117;SDS011;23928;47.562;7.508;2023-12-14T07:10:30;4.90;;;3.83;;
38117;SDS011;23928;47.562;7.508;2023-12-14T07:12:56;5.33;;;4.30;;
38117;SDS011;23928;47.562;7.508;2023-12-14T07:15:21;7.10;;;4.47;;
38117;SDS011;23928;47.562;7.508;2023-12-14T07:17:47;7.00;;;4.77;;
38117;SDS011;23928;47.562;7.508;2023-12-14T07:20:12;7.13;;;5.10;;
38117;SDS011;23928;47.562;7.508;2023-12-14T07:22:38;4.70;;;3.80;;
38117;SDS011;23928;47.562;7.508;2023-12-14T07:25:04;6.97;;;4.30;;
38117;SDS011;23928;47.562;7.508;2023-12-14T07:27:29;6.23;;;4.70;;
38117;SDS011;23928;47.562;7.508;2023-12-14T07:29:55;6.40;;;4.53;;
38117;SDS011;23928;47.562;7.508;2023-12-14T07:32:21;6.87;;;5.60;;
38117;SDS011;23928;47.562;7.508;2023-12-14T07:34:46;6.97;;;4.97;;
38117;SDS011;23928;47.562;7.508;2023-12-14T07:37:12;5.33;;;4.27;;
38117;SDS011;23928;47.562;7.508;2023-12-14T07:39:38;5.20;;;3.77;;
38117;SDS011;23928;47.562;7.508;2023-12-14T07:42:04;4.20;;;3.40;;
38117;SDS011;23928;47.562;7.508;2023-12-14T07:44:30;6.33;;;4.93;;
38117;SDS011;23928;47.562;7.508;2023-12-14T07:46:56;6.07;;;4.40;;
38117;SDS011;23928;47.562;7.508;2023-12-14T07:49:24;4.67;;;4.00;;
38117;SDS011;23928;47.562;7.508;2023-12-14T07:51:49;7.13;;;4.50;;
38117;SDS011;23928;47.562;7.508;2023-12-14T07:54:15;6.00;;;4.47;;
38117;SDS011;23928;47.562;7.508;2023-12-14T07:56:40;5.37;;;4.00;;
38117;SDS011;23928;47.562;7.508;2023-12-14T07:59:06;5.10;;;4.00;;
38117;SDS011;23928;47.562;7.508;2023-12-14T08:01:33;5.77;;;3.90;;
38117;SDS011;23928;47.562;7.508;2023-12-14T08:03:59;5.50;;;4.07;;
38117;SDS011;23928;47.562;7.508;2023-12-14T08:06:25;4.97;;;3.57;;
38117;SDS011;23928;47.562;7.508;2023-12-14T08:08:50;4.47;;;3.60;;
38117;SDS011;23928;47.562;7.508;2023-12-14T08:11:16;4.33;;;3.53;;
38117;SDS011;23928;47.562;7.508;2023-12-14T08:13:42;5.07;;;3.50;;
38117;SDS011;23928;47.562;7.508;2023-12-14T08:16:07;5.57;;;3.70;;
38117;SDS011;23928;47.562;7.508;2023-12-14T08:18:33;4.60;;;3.83;;
38117;SDS011;23928;47.562;7.508;2023-12-14T08:20:59;4.43;;;3.30;;
38117;SDS011;23928;47.562;7.508;2023-12-14T08:23:24;3.67;;;3.07;;
38117;SDS011;23928;47.562;7.508;2023-12-14T08:25:52;4.60;;;3.40;;
38117;SDS011;23928;47.562;7.508;2023-12-14T08:28:22;9.67;;;5.50;;
38117;SDS011;23928;47.562;7.508;2023-12-14T08:30:48;5.57;;;3.33;;
38117;SDS011;23928;47.562;7.508;2023-12-14T08:33:14;6.00;;;4.17;;
38117;SDS011;23928;47.562;7.508;2023-12-14T08:35:40;4.93;;;3.80;;
38117;SDS011;23928;47.562;7.508;2023-12-14T08:38:06;5.50;;;3.73;;
38117;SDS011;23928;47.562;7.508;2023-12-14T08:40:32;5.43;;;3.80;;
38117;SDS011;23928;47.562;7.508;2023-12-14T08:42:57;4.27;;;3.30;;
38117;SDS011;23928;47.562;7.508;2023-12-14T08:45:23;3.63;;;3.13;;
38117;SDS011;23928;47.562;7.508;2023-12-14T08:47:48;5.23;;;4.03;;
38117;SDS011;23928;47.562;7.508;2023-12-14T08:50:14;6.90;;;4.07;;
38117;SDS011;23928;47.562;7.508;2023-12-14T08:52:40;5.53;;;3.67;;
38117;SDS011;23928;47.562;7.508;2023-12-14T08:55:06;5.40;;;3.67;;
38117;SDS011;23928;47.562;7.508;2023-12-14T08:57:34;4.13;;;3.40;;
38117;SDS011;23928;47.562;7.508;2023-12-14T09:00:00;4.37;;;3.37;;
38117;SDS011;23928;47.562;7.508;2023-12-14T09:02:29;5.57;;;3.43;;
38117;SDS011;23928;47.562;7.508;2023-12-14T09:04:55;4.23;;;3.03;;
38117;SDS011;23928;47.562;7.508;2023-12-14T09:07:20;4.00;;;2.97;;
38117;SDS011;23928;47.562;7.508;2023-12-14T09:09:46;3.23;;;2.80;;
38117;SDS011;23928;47.562;7.508;2023-12-14T09:12:11;3.30;;;2.73;;
38117;SDS011;23928;47.562;7.508;2023-12-14T09:14:37;2.93;;;2.53;;
38117;SDS011;23928;47.562;7.508;2023-12-14T09:17:03;3.67;;;2.80;;
38117;SDS011;23928;47.562;7.508;2023-12-14T09:19:31;2.93;;;2.27;;
38117;SDS011;23928;47.562;7.508;2023-12-14T09:21:57;2.73;;;2.43;;
38117;SDS011;23928;47.562;7.508;2023-12-14T09:24:23;2.97;;;2.37;;
38117;SDS011;23928;47.562;7.508;2023-12-14T09:26:49;3.13;;;2.50;;
38117;SDS011;23928;47.562;7.508;2023-12-14T09:29:14;2.73;;;2.20;;
38117;SDS011;23928;47.562;7.508;2023-12-14T09:31:41;3.30;;;2.10;;
38117;SDS011;23928;47.562;7.508;2023-12-14T09:34:07;3.13;;;2.40;;
38117;SDS011;23928;47.562;7.508;2023-12-14T09:36:34;2.73;;;2.20;;
38117;SDS011;23928;47.562;7.508;2023-12-14T09:38:59;3.60;;;2.40;;
38117;SDS011;23928;47.562;7.508;2023-12-14T09:41:25;3.80;;;2.30;;
38117;SDS011;23928;47.562;7.508;2023-12-14T09:43:51;2.83;;;2.50;;
38117;SDS011;23928;47.562;7.508;2023-12-14T09:46:17;2.43;;;2.10;;
38117;SDS011;23928;47.562;7.508;2023-12-14T09:48:45;2.83;;;2.63;;
38117;SDS011;23928;47.562;7.508;2023-12-14T09:51:12;2.80;;;2.10;;
38117;SDS011;23928;47.562;7.508;2023-12-14T09:53:38;4.27;;;2.97;;
38117;SDS011;23928;47.562;7.508;2023-12-14T09:56:03;3.00;;;2.43;;
38117;SDS011;23928;47.562;7.508;2023-12-14T09:58:32;3.93;;;2.30;;
38117;SDS011;23928;47.562;7.508;2023-12-14T10:00:58;2.33;;;2.10;;
38117;SDS011;23928;47.562;7.508;2023-12-14T10:03:26;2.50;;;1.90;;
38117;SDS011;23928;47.562;7.508;2023-12-14T10:05:54;2.27;;;1.90;;
38117;SDS011;23928;47.562;7.508;2023-12-14T10:08:21;3.23;;;1.80;;
38117;SDS011;23928;47.562;7.508;2023-12-14T10:10:48;3.00;;;1.73;;
38117;SDS011;23928;47.562;7.508;2023-12-14T10:13:16;1.67;;;1.57;;
38117;SDS011;23928;47.562;7.508;2023-12-14T10:15:45;1.60;;;1.50;;
38117;SDS011;23928;47.562;7.508;2023-12-14T10:18:14;2.10;;;1.80;;
38117;SDS011;23928;47.562;7.508;2023-12-14T10:20:49;1.60;;;1.50;;
38117;SDS011;23928;47.562;7.508;2023-12-14T10:23:15;1.83;;;1.50;;
38117;SDS011;23928;47.562;7.508;2023-12-14T10:25:42;2.53;;;1.53;;
38117;SDS011;23928;47.562;7.508;2023-12-14T10:28:11;1.77;;;1.67;;
38117;SDS011;23928;47.562;7.508;2023-12-14T10:30:38;1.60;;;1.50;;
38117;SDS011;23928;47.562;7.508;2023-12-14T10:33:04;1.70;;;1.60;;
38117;SDS011;23928;47.562;7.508;2023-12-14T10:35:30;1.93;;;1.73;;
38117;SDS011;23928;47.562;7.508;2023-12-14T10:37:55;2.53;;;1.90;;
38117;SDS011;23928;47.562;7.508;2023-12-14T10:40:23;2.67;;;1.80;;
38117;SDS011;23928;47.562;7.508;2023-12-14T10:42:50;1.57;;;1.47;;
38117;SDS011;23928;47.562;7.508;2023-12-14T10:45:17;2.83;;;1.80;;
38117;SDS011;23928;47.562;7.508;2023-12-14T10:47:45;2.20;;;2.00;;
38117;SDS011;23928;47.562;7.508;2023-12-14T10:50:12;1.80;;;1.70;;
38117;SDS011;23928;47.562;7.508;2023-12-14T10:52:41;2.97;;;1.93;;
38117;SDS011;23928;47.562;7.508;2023-12-14T10:55:08;1.67;;;1.57;;
38117;SDS011;23928;47.562;7.508;2023-12-14T10:57:39;1.60;;;1.50;;
38117;SDS011;23928;47.562;7.508;2023-12-14T11:00:05;2.17;;;1.90;;
38117;SDS011;23928;47.562;7.508;2023-12-14T11:02:39;1.90;;;1.70;;
38117;SDS011;23928;47.562;7.508;2023-12-14T11:05:08;2.13;;;1.97;;
38117;SDS011;23928;47.562;7.508;2023-12-14T11:10:13;1.90;;;1.67;;
38117;SDS011;23928;47.562;7.508;2023-12-14T11:12:54;2.00;;;1.80;;
38117;SDS011;23928;47.562;7.508;2023-12-14T11:15:30;3.27;;;1.67;;
38117;SDS011;23928;47.562;7.508;2023-12-14T11:20:47;2.43;;;2.20;;
38117;SDS011;23928;47.562;7.508;2023-12-14T11:23:14;2.77;;;2.27;;
38117;SDS011;23928;47.562;7.508;2023-12-14T11:25:51;3.23;;;2.00;;
38117;SDS011;23928;47.562;7.508;2023-12-14T11:28:18;2.93;;;2.40;;
38117;SDS011;23928;47.562;7.508;2023-12-14T11:30:45;2.73;;;2.20;;
38117;SDS011;23928;47.562;7.508;2023-12-14T11:33:11;2.00;;;1.80;;
38117;SDS011;23928;47.562;7.508;2023-12-14T11:35:38;3.70;;;2.50;;
38117;SDS011;23928;47.562;7.508;2023-12-14T11:38:04;2.37;;;2.17;;
38117;SDS011;23928;47.562;7.508;2023-12-14T11:40:37;2.50;;;2.30;;
38117;SDS011;23928;47.562;7.508;2023-12-14T11:43:04;2.30;;;2.07;;
38117;SDS011;23928;47.562;7.508;2023-12-14T11:45:36;2.80;;;2.47;;
38117;SDS011;23928;47.562;7.508;2023-12-14T11:48:03;2.33;;;1.97;;
38117;SDS011;23928;47.562;7.508;2023-12-14T11:50:31;2.77;;;2.20;;
38117;SDS011;23928;47.562;7.508;2023-12-14T11:52:58;2.50;;;2.30;;
38117;SDS011;23928;47.562;7.508;2023-12-14T11:55:25;3.67;;;2.40;;
38117;SDS011;23928;47.562;7.508;2023-12-14T11:57:51;2.40;;;2.20;;
38117;SDS011;23928;47.562;7.508;2023-12-14T12:00:18;2.70;;;2.50;;
38117;SDS011;23928;47.562;7.508;2023-12-14T12:02:48;2.37;;;2.00;;
38117;SDS011;23928;47.562;7.508;2023-12-14T12:05:13;2.67;;;2.43;;
38117;SDS011;23928;47.562;7.508;2023-12-14T12:07:43;2.93;;;2.00;;
38117;SDS011;23928;47.562;7.508;2023-12-14T12:10:10;3.03;;;2.73;;
38117;SDS011;23928;47.562;7.508;2023-12-14T12:12:36;3.50;;;2.53;;
38117;SDS011;23928;47.562;7.508;2023-12-14T12:15:03;2.57;;;2.30;;
38117;SDS011;23928;47.562;7.508;2023-12-14T12:17:29;2.60;;;2.40;;
38117;SDS011;23928;47.562;7.508;2023-12-14T12:19:54;2.40;;;2.20;;
38117;SDS011;23928;47.562;7.508;2023-12-14T12:22:20;3.13;;;2.70;;
38117;SDS011;23928;47.562;7.508;2023-12-14T12:24:46;3.67;;;2.80;;
38117;SDS011;23928;47.562;7.508;2023-12-14T12:27:11;2.77;;;2.30;;
38117;SDS011;23928;47.562;7.508;2023-12-14T12:29:37;4.73;;;2.73;;
38117;SDS011;23928;47.562;7.508;2023-12-14T12:32:02;2.60;;;2.30;;
38117;SDS011;23928;47.562;7.508;2023-12-14T12:34:29;3.13;;;2.77;;
38117;SDS011;23928;47.562;7.508;2023-12-14T12:36:54;3.40;;;3.03;;
38117;SDS011;23928;47.562;7.508;2023-12-14T12:39:22;3.40;;;2.90;;
38117;SDS011;23928;47.562;7.508;2023-12-14T12:41:48;3.20;;;2.90;;
38117;SDS011;23928;47.562;7.508;2023-12-14T12:44:13;3.47;;;3.13;;
38117;SDS011;23928;47.562;7.508;2023-12-14T12:46:39;3.43;;;3.10;;
38117;SDS011;23928;47.562;7.508;2023-12-14T12:49:05;4.37;;;3.47;;
38117;SDS011;23928;47.562;7.508;2023-12-14T12:51:31;6.73;;;3.67;;
38117;SDS011;23928;47.562;7.508;2023-12-14T12:53:57;3.87;;;3.40;;
38117;SDS011;23928;47.562;7.508;2023-12-14T12:56:25;4.83;;;3.30;;
38117;SDS011;23928;47.562;7.508;2023-12-14T12:58:52;4.97;;;3.60;;
38117;SDS011;23928;47.562;7.508;2023-12-14T13:01:22;4.47;;;3.40;;
38117;SDS011;23928;47.562;7.508;2023-12-14T13:03:52;4.27;;;2.97;;
38117;SDS011;23928;47.562;7.508;2023-12-14T13:06:20;5.93;;;3.57;;
38117;SDS011;23928;47.562;7.508;2023-12-14T13:08:46;3.50;;;3.20;;
38117;SDS011;23928;47.562;7.508;2023-12-14T13:11:11;6.30;;;3.80;;
38117;SDS011;23928;47.562;7.508;2023-12-14T13:13:37;4.40;;;3.40;;
38117;SDS011;23928;47.562;7.508;2023-12-14T13:16:03;5.13;;;3.73;;
38117;SDS011;23928;47.562;7.508;2023-12-14T13:18:28;4.70;;;3.40;;
38117;SDS011;23928;47.562;7.508;2023-12-14T13:20:54;5.20;;;3.47;;
38117;SDS011;23928;47.562;7.508;2023-12-14T13:23:20;5.17;;;3.63;;
38117;SDS011;23928;47.562;7.508;2023-12-14T13:25:45;5.53;;;3.70;;
38117;SDS011;23928;47.562;7.508;2023-12-14T13:28:11;5.20;;;3.50;;
38117;SDS011;23928;47.562;7.508;2023-12-14T13:30:38;4.20;;;3.77;;
38117;SDS011;23928;47.562;7.508;2023-12-14T13:33:04;4.77;;;3.43;;
38117;SDS011;23928;47.562;7.508;2023-12-14T13:35:31;4.27;;;3.57;;
38117;SDS011;23928;47.562;7.508;2023-12-14T13:37:57;4.20;;;3.50;;
38117;SDS011;23928;47.562;7.508;2023-12-14T13:40:22;6.40;;;3.93;;
38117;SDS011;23928;47.562;7.508;2023-12-14T13:42:48;4.40;;;3.60;;
38117;SDS011;23928;47.562;7.508;2023-12-14T13:45:14;4.67;;;3.87;;
38117;SDS011;23928;47.562;7.508;2023-12-14T13:47:39;5.83;;;4.60;;
38117;SDS011;23928;47.562;7.508;2023-12-14T13:50:05;5.77;;;4.20;;
38117;SDS011;23928;47.562;7.508;2023-12-14T13:52:31;5.93;;;4.30;;
38117;SDS011;23928;47.562;7.508;2023-12-14T13:54:57;5.90;;;4.60;;
38117;SDS011;23928;47.562;7.508;2023-12-14T13:57:24;6.53;;;4.37;;
38117;SDS011;23928;47.562;7.508;2023-12-14T13:59:50;4.73;;;3.80;;
38117;SDS011;23928;47.562;7.508;2023-12-14T14:02:15;5.63;;;4.13;;
38117;SDS011;23928;47.562;7.508;2023-12-14T14:04:41;9.63;;;5.20;;
38117;SDS011;23928;47.562;7.508;2023-12-14T14:07:06;5.50;;;4.37;;
38117;SDS011;23928;47.562;7.508;2023-12-14T14:09:32;6.50;;;4.77;;
38117;SDS011;23928;47.562;7.508;2023-12-14T14:11:58;6.33;;;5.10;;
38117;SDS011;23928;47.562;7.508;2023-12-14T14:14:23;8.70;;;5.17;;
38117;SDS011;23928;47.562;7.508;2023-12-14T14:16:49;7.40;;;5.07;;
38117;SDS011;23928;47.562;7.508;2023-12-14T14:19:15;5.93;;;4.40;;
38117;SDS011;23928;47.562;7.508;2023-12-14T14:21:40;6.17;;;5.20;;
38117;SDS011;23928;47.562;7.508;2023-12-14T14:24:06;6.20;;;4.80;;
38117;SDS011;23928;47.562;7.508;2023-12-14T14:26:32;5.77;;;4.83;;
38117;SDS011;23928;47.562;7.508;2023-12-14T14:28:57;6.43;;;4.70;;
38117;SDS011;23928;47.562;7.508;2023-12-14T14:31:27;7.70;;;4.70;;
38117;SDS011;23928;47.562;7.508;2023-12-14T14:33:56;7.23;;;4.53;;
38117;SDS011;23928;47.562;7.508;2023-12-14T14:36:23;5.93;;;4.67;;
38117;SDS011;23928;47.562;7.508;2023-12-14T14:38:48;7.50;;;4.60;;
38117;SDS011;23928;47.562;7.508;2023-12-14T14:41:15;6.53;;;4.73;;
38117;SDS011;23928;47.562;7.508;2023-12-14T14:43:40;6.47;;;4.27;;
38117;SDS011;23928;47.562;7.508;2023-12-14T14:46:07;6.47;;;4.60;;
38117;SDS011;23928;47.562;7.508;2023-12-14T14:48:33;6.97;;;5.10;;
38117;SDS011;23928;47.562;7.508;2023-12-14T14:50:59;6.67;;;4.20;;